Time;durP1;ratioP1;P1;durP2;ratioP2;P2;SDS_P1;SDS_P2;PMS_P1;PMS_P2;Temp;Humidity;BMP_temperature;BMP_pressure;BME280_temperature;BME280_humidity;BME280_pressure;Samples;Min_cycle;Max_cycle;Signal;HPM_P1;HPM_P2
2023/03/12 00:00:10;;;;;;;10.90;6.03;;;;;;;;;;5042387;28;20067;-64
2023/03/12 00:02:35;;;;;;;11.02;5.25;;;;;;;;;;5040073;28;20071;-64
2023/03/12 00:05:00;;;;;;;10.63;5.93;;;;;;;;;;5047760;28;20033;-64
2023/03/12 00:07:26;;;;;;;7.43;4.60;;;;;;;;;;5043612;28;20399;-64
2023/03/12 00:09:51;;;;;;;8.68;4.90;;;;;;;;;;5047007;28;20071;-64
2023/03/12 00:12:16;;;;;;;7.93;4.60;;;;;;;;;;5044111;28;20018;-64
2023/03/12 00:14:41;;;;;;;9.55;4.93;;;;;;;;;;5052676;28;20033;-65
2023/03/12 00:17:07;;;;;;;18.63;5.25;;;;;;;;;;5039294;28;20026;-65
2023/03/12 00:19:32;;;;;;;10.10;5.43;;;;;;;;;;5032988;28;20471;-64
2023/03/12 00:21:57;;;;;;;8.63;5.00;;;;;;;;;;5038617;28;20032;-65
2023/03/12 00:24:22;;;;;;;10.95;5.55;;;;;;;;;;5033729;28;20067;-66
2023/03/12 00:26:48;;;;;;;7.93;4.70;;;;;;;;;;5051493;28;20064;-66
2023/03/12 00:29:13;;;;;;;6.68;4.68;;;;;;;;;;5041016;28;20111;-65
2023/03/12 00:31:38;;;;;;;7.28;4.88;;;;;;;;;;5043901;28;20414;-65
2023/03/12 00:34:03;;;;;;;10.50;5.70;;;;;;;;;;5046321;28;20033;-65
2023/03/12 00:36:30;;;;;;;16.95;5.88;;;;;;;;;;5053223;28;20068;-65
2023/03/12 00:38:56;;;;;;;9.73;5.15;;;;;;;;;;5032969;28;20065;-65
2023/03/12 00:41:22;;;;;;;8.88;5.38;;;;;;;;;;5034182;28;20514;-66
2023/03/12 00:43:48;;;;;;;9.52;5.78;;;;;;;;;;5032802;28;20032;-65
2023/03/12 00:46:13;;;;;;;9.57;5.70;;;;;;;;;;5039308;28;20052;-65
2023/03/12 00:48:38;;;;;;;15.10;6.53;;;;;;;;;;5039293;28;20383;-65
2023/03/12 00:51:04;;;;;;;11.30;5.93;;;;;;;;;;5039530;28;20559;-66
2023/03/12 00:53:29;;;;;;;12.93;6.15;;;;;;;;;;5052578;28;20021;-65
2023/03/12 00:55:54;;;;;;;7.78;4.55;;;;;;;;;;5050567;28;20021;-65
2023/03/12 00:58:19;;;;;;;11.63;5.97;;;;;;;;;;5051884;28;20064;-65
2023/03/12 01:00:45;;;;;;;10.02;6.22;;;;;;;;;;5051109;28;20028;-65
2023/03/12 01:03:10;;;;;;;15.95;6.30;;;;;;;;;;5051758;28;20108;-65
2023/03/12 01:05:36;;;;;;;8.55;5.38;;;;;;;;;;5051173;28;20040;-65
2023/03/12 01:08:02;;;;;;;9.43;5.82;;;;;;;;;;5051586;28;20033;-65
2023/03/12 01:10:28;;;;;;;13.30;6.03;;;;;;;;;;5052221;28;20021;-65
2023/03/12 01:12:53;;;;;;;10.70;5.75;;;;;;;;;;5032581;28;20080;-65
2023/03/12 01:15:18;;;;;;;12.90;6.05;;;;;;;;;;5032656;28;20026;-65
2023/03/12 01:17:44;;;;;;;10.30;5.93;;;;;;;;;;5032691;28;20057;-65
2023/03/12 01:20:09;;;;;;;10.27;6.22;;;;;;;;;;5048825;28;20036;-65
2023/03/12 01:22:35;;;;;;;14.82;6.68;;;;;;;;;;5043389;28;20040;-65
2023/03/12 01:25:00;;;;;;;7.18;4.95;;;;;;;;;;5049201;28;20025;-65
2023/03/12 01:27:26;;;;;;;13.43;6.43;;;;;;;;;;5055771;28;20031;-65
2023/03/12 01:29:51;;;;;;;12.48;5.93;;;;;;;;;;5056142;28;20029;-65
2023/03/12 01:32:17;;;;;;;14.93;6.22;;;;;;;;;;5043423;28;20443;-65
2023/03/12 01:34:42;;;;;;;10.50;6.07;;;;;;;;;;5042253;28;20021;-65
2023/03/12 01:37:07;;;;;;;9.45;5.82;;;;;;;;;;5055991;28;20029;-65
2023/03/12 01:39:33;;;;;;;13.52;6.50;;;;;;;;;;5055048;28;20111;-65
2023/03/12 01:41:59;;;;;;;19.50;6.60;;;;;;;;;;5055118;28;20032;-65
2023/03/12 01:44:24;;;;;;;8.45;5.85;;;;;;;;;;5055513;28;20021;-65
2023/03/12 01:46:50;;;;;;;16.02;5.40;;;;;;;;;;5054935;28;20495;-65
2023/03/12 01:49:17;;;;;;;8.77;5.32;;;;;;;;;;5054332;28;20017;-65
2023/03/12 01:51:51;;;;;;;15.60;5.53;;;;;;;;;;5054823;28;20025;-65
2023/03/12 01:54:36;;;;;;;14.30;6.17;;;;;;;;;;5055466;28;20100;-65
2023/03/12 01:57:03;;;;;;;12.43;5.60;;;;;;;;;;5050777;28;20343;-65
2023/03/12 01:59:37;;;;;;;14.02;5.65;;;;;;;;;;5054872;28;20113;-65
2023/03/12 02:02:03;;;;;;;8.50;4.82;;;;;;;;;;5053970;28;20585;-65
2023/03/12 02:04:30;;;;;;;14.23;4.85;;;;;;;;;;5054856;28;20029;-65
2023/03/12 02:07:03;;;;;;;8.35;4.45;;;;;;;;;;5052683;28;20025;-66
2023/03/12 02:09:29;;;;;;;11.93;4.47;;;;;;;;;;5053363;28;20368;-65
2023/03/12 02:11:55;;;;;;;9.68;4.43;;;;;;;;;;5043594;28;20037;-65
2023/03/12 02:14:20;;;;;;;12.88;4.70;;;;;;;;;;5048148;28;20040;-65
2023/03/12 02:16:45;;;;;;;14.77;5.05;;;;;;;;;;5035654;28;20073;-65
2023/03/12 02:19:17;;;;;;;10.48;4.45;;;;;;;;;;5036168;28;20353;-65
2023/03/12 02:21:42;;;;;;;14.48;5.28;;;;;;;;;;5047728;28;20036;-65
2023/03/12 02:24:22;;;;;;;9.55;4.68;;;;;;;;;;5049609;28;20017;-65
2023/03/12 02:26:48;;;;;;;8.93;4.78;;;;;;;;;;5050937;28;20048;-65
2023/03/12 02:29:14;;;;;;;12.70;4.80;;;;;;;;;;5051956;28;20025;-65
2023/03/12 02:31:44;;;;;;;13.30;4.32;;;;;;;;;;5052630;28;20021;-65
2023/03/12 02:34:09;;;;;;;7.43;4.38;;;;;;;;;;5051930;28;20037;-65
2023/03/12 02:36:35;;;;;;;10.07;4.65;;;;;;;;;;5046833;28;20083;-65
2023/03/12 02:39:00;;;;;;;11.23;4.35;;;;;;;;;;5040835;28;20017;-65
2023/03/12 02:41:27;;;;;;;6.85;4.28;;;;;;;;;;5054788;28;20117;-64
2023/03/12 02:44:01;;;;;;;10.52;4.10;;;;;;;;;;5042257;28;20052;-64
2023/03/12 02:46:27;;;;;;;11.07;4.07;;;;;;;;;;5053723;28;20170;-64
2023/03/12 02:48:54;;;;;;;12.13;4.07;;;;;;;;;;5036525;28;20036;-65
2023/03/12 02:51:19;;;;;;;8.88;3.88;;;;;;;;;;5046197;28;20028;-65
2023/03/12 02:53:45;;;;;;;6.38;3.85;;;;;;;;;;5053117;28;20368;-65
2023/03/12 02:56:10;;;;;;;8.88;4.00;;;;;;;;;;5054451;28;20021;-65
2023/03/12 02:58:36;;;;;;;8.88;3.53;;;;;;;;;;5053792;28;20502;-65
2023/03/12 03:01:02;;;;;;;10.50;3.28;;;;;;;;;;5054309;28;20108;-65
2023/03/12 03:03:27;;;;;;;7.45;3.30;;;;;;;;;;5041248;28;20028;-65
2023/03/12 03:05:52;;;;;;;12.07;3.60;;;;;;;;;;5046156;28;20026;-65
2023/03/12 03:08:18;;;;;;;9.25;3.03;;;;;;;;;;5041260;28;20033;-65
2023/03/12 03:10:43;;;;;;;8.82;2.90;;;;;;;;;;5049181;28;20036;-65
2023/03/12 03:13:08;;;;;;;5.88;3.03;;;;;;;;;;5053963;28;20438;-65
2023/03/12 03:15:33;;;;;;;9.65;3.20;;;;;;;;;;5053230;28;20028;-65
2023/03/12 03:18:02;;;;;;;8.50;3.10;;;;;;;;;;5054136;28;20525;-64
2023/03/12 03:20:28;;;;;;;8.00;2.97;;;;;;;;;;5053327;28;20017;-64
2023/03/12 03:22:53;;;;;;;8.85;3.03;;;;;;;;;;5054024;28;20106;-65
2023/03/12 03:25:21;;;;;;;8.32;3.17;;;;;;;;;;5053057;28;20021;-65
2023/03/12 03:27:46;;;;;;;7.80;2.85;;;;;;;;;;5053516;28;20162;-65
2023/03/12 03:30:11;;;;;;;9.80;3.40;;;;;;;;;;5053182;28;20056;-65
2023/03/12 03:32:37;;;;;;;7.57;3.25;;;;;;;;;;5053669;28;20052;-65
2023/03/12 03:35:03;;;;;;;6.72;3.03;;;;;;;;;;5038975;28;20022;-65
2023/03/12 03:37:28;;;;;;;7.78;3.28;;;;;;;;;;5034023;28;20024;-65
2023/03/12 03:39:53;;;;;;;7.65;3.30;;;;;;;;;;5034153;28;20069;-65
2023/03/12 03:42:18;;;;;;;7.38;2.90;;;;;;;;;;5033006;28;20034;-65
2023/03/12 03:44:44;;;;;;;8.15;2.78;;;;;;;;;;5047256;28;20044;-65
2023/03/12 03:47:09;;;;;;;6.90;3.30;;;;;;;;;;5053184;28;20078;-65
2023/03/12 03:49:34;;;;;;;6.85;3.65;;;;;;;;;;5053188;28;20049;-65
2023/03/12 03:51:59;;;;;;;7.22;3.22;;;;;;;;;;5052933;28;20025;-65
2023/03/12 03:54:25;;;;;;;7.15;3.38;;;;;;;;;;5053162;28;20033;-65
2023/03/12 03:56:50;;;;;;;6.10;2.75;;;;;;;;;;5053351;28;20025;-65
2023/03/12 03:59:15;;;;;;;8.80;3.10;;;;;;;;;;5053241;28;20482;-65
2023/03/12 04:01:41;;;;;;;11.05;3.05;;;;;;;;;;5039810;28;20075;-65
2023/03/12 04:04:06;;;;;;;7.00;3.45;;;;;;;;;;5053119;28;20057;-65
2023/03/12 04:06:31;;;;;;;16.60;3.65;;;;;;;;;;5052532;28;20062;-65
2023/03/12 04:08:57;;;;;;;6.13;3.20;;;;;;;;;;5052517;28;20383;-64
2023/03/12 04:11:22;;;;;;;10.05;3.78;;;;;;;;;;5052999;28;20031;-65
2023/03/12 04:13:48;;;;;;;7.18;3.22;;;;;;;;;;5052507;28;20021;-65
2023/03/12 04:16:13;;;;;;;11.57;4.65;;;;;;;;;;5052582;28;20031;-65
2023/03/12 04:18:39;;;;;;;8.55;3.85;;;;;;;;;;5052253;28;20416;-65
2023/03/12 04:21:05;;;;;;;10.13;4.07;;;;;;;;;;5033759;28;20017;-65
2023/03/12 04:23:30;;;;;;;8.70;4.68;;;;;;;;;;5046640;28;20212;-65
2023/03/12 04:25:56;;;;;;;12.27;4.60;;;;;;;;;;5046076;28;20108;-65
2023/03/12 04:28:21;;;;;;;14.15;5.18;;;;;;;;;;5046198;28;20017;-65
2023/03/12 04:30:58;;;;;;;11.23;5.60;;;;;;;;;;5032983;28;20490;-65
2023/03/12 04:33:23;;;;;;;14.13;5.35;;;;;;;;;;5033524;28;20028;-65
2023/03/12 04:35:50;;;;;;;11.55;5.80;;;;;;;;;;5033206;28;20022;-65
2023/03/12 04:38:15;;;;;;;11.90;5.07;;;;;;;;;;5032904;28;20029;-65
2023/03/12 04:40:41;;;;;;;12.02;5.72;;;;;;;;;;5041238;28;20353;-65
2023/03/12 04:43:06;;;;;;;12.48;5.50;;;;;;;;;;5051345;28;20086;-65
2023/03/12 04:45:31;;;;;;;10.80;5.32;;;;;;;;;;5052274;28;20484;-65
2023/03/12 04:47:56;;;;;;;15.40;6.00;;;;;;;;;;5051428;28;20032;-65
2023/03/12 04:50:22;;;;;;;20.55;5.57;;;;;;;;;;5052000;28;20017;-64
2023/03/12 04:52:47;;;;;;;13.05;6.15;;;;;;;;;;5039477;28;20033;-64
2023/03/12 04:55:12;;;;;;;11.55;5.22;;;;;;;;;;5032469;28;20040;-64
2023/03/12 04:57:37;;;;;;;9.43;6.18;;;;;;;;;;5032870;28;20028;-64
2023/03/12 05:00:08;;;;;;;10.10;6.13;;;;;;;;;;5032912;28;20021;-64
2023/03/12 05:02:35;;;;;;;19.20;6.45;;;;;;;;;;5032781;28;20065;-64
2023/03/12 05:05:00;;;;;;;23.60;5.78;;;;;;;;;;5033360;28;20029;-64
2023/03/12 05:07:25;;;;;;;17.67;6.20;;;;;;;;;;5033416;28;20033;-65
2023/03/12 05:09:51;;;;;;;14.60;5.95;;;;;;;;;;5047968;28;20407;-65
2023/03/12 05:12:16;;;;;;;11.43;6.20;;;;;;;;;;5052499;28;20163;-65
2023/03/12 05:14:41;;;;;;;14.35;5.55;;;;;;;;;;5052358;28;20040;-65
2023/03/12 05:17:06;;;;;;;16.08;5.47;;;;;;;;;;5050480;28;20498;-65
2023/03/12 05:19:32;;;;;;;10.52;5.63;;;;;;;;;;5032669;28;20017;-65
2023/03/12 05:21:57;;;;;;;12.88;5.32;;;;;;;;;;5045624;28;20033;-65
2023/03/12 05:24:23;;;;;;;11.80;5.07;;;;;;;;;;5051556;28;20021;-65
2023/03/12 05:26:48;;;;;;;12.25;5.22;;;;;;;;;;5051448;28;20029;-65
2023/03/12 05:29:14;;;;;;;17.05;5.35;;;;;;;;;;5051775;28;20024;-66
2023/03/12 05:31:39;;;;;;;7.55;4.80;;;;;;;;;;5051058;28;20025;-65
2023/03/12 05:34:04;;;;;;;11.80;4.50;;;;;;;;;;5051912;28;20017;-65
2023/03/12 05:36:30;;;;;;;9.43;4.80;;;;;;;;;;5051078;28;20117;-65
2023/03/12 05:38:55;;;;;;;15.48;5.35;;;;;;;;;;5052377;28;20029;-65
2023/03/12 05:41:24;;;;;;;9.43;5.38;;;;;;;;;;5051504;28;20051;-65
2023/03/12 05:43:51;;;;;;;10.10;4.43;;;;;;;;;;5033619;28;20021;-65
2023/03/12 05:46:16;;;;;;;13.18;5.30;;;;;;;;;;5045749;28;20370;-65
2023/03/12 05:48:41;;;;;;;7.32;4.65;;;;;;;;;;5050633;28;20017;-65
2023/03/12 05:51:07;;;;;;;10.02;5.78;;;;;;;;;;5051590;28;20475;-65
2023/03/12 05:53:32;;;;;;;10.30;4.82;;;;;;;;;;5046195;28;20108;-65
2023/03/12 05:56:05;;;;;;;11.80;5.10;;;;;;;;;;5032203;28;20021;-65
2023/03/12 05:58:30;;;;;;;12.25;4.93;;;;;;;;;;5032452;28;20034;-65
2023/03/12 06:00:55;;;;;;;9.27;5.05;;;;;;;;;;5032368;28;20030;-65
2023/03/12 06:03:21;;;;;;;9.77;5.38;;;;;;;;;;5037888;28;20104;-65
2023/03/12 06:05:47;;;;;;;7.85;4.97;;;;;;;;;;5039519;28;20445;-65
2023/03/12 06:08:12;;;;;;;10.63;6.28;;;;;;;;;;5036163;28;20108;-65
2023/03/12 06:10:38;;;;;;;11.60;5.35;;;;;;;;;;5036838;28;20100;-65
2023/03/12 06:13:03;;;;;;;12.55;4.90;;;;;;;;;;5036511;28;20395;-65
2023/03/12 06:15:29;;;;;;;8.43;5.07;;;;;;;;;;5048991;28;20013;-65
2023/03/12 06:17:54;;;;;;;15.23;5.57;;;;;;;;;;5054697;28;20044;-65
2023/03/12 06:20:19;;;;;;;11.05;5.35;;;;;;;;;;5055327;28;20025;-65
2023/03/12 06:22:45;;;;;;;12.70;5.00;;;;;;;;;;5054778;28;20021;-65
2023/03/12 06:25:10;;;;;;;15.90;5.68;;;;;;;;;;5054819;28;20109;-65
2023/03/12 06:27:35;;;;;;;10.70;5.68;;;;;;;;;;5053613;28;20075;-65
2023/03/12 06:30:01;;;;;;;10.15;5.80;;;;;;;;;;5053298;28;20028;-65
2023/03/12 06:32:26;;;;;;;8.73;5.22;;;;;;;;;;5052257;28;20414;-65
2023/03/12 06:34:51;;;;;;;8.82;5.15;;;;;;;;;;5052769;28;20029;-65
2023/03/12 06:37:17;;;;;;;11.55;6.05;;;;;;;;;;5051736;28;20097;-65
2023/03/12 06:39:42;;;;;;;7.65;5.22;;;;;;;;;;5051342;28;20111;-65
2023/03/12 06:42:07;;;;;;;8.38;5.15;;;;;;;;;;5043380;28;20364;-65
2023/03/12 06:44:32;;;;;;;9.38;5.75;;;;;;;;;;5055185;28;20028;-65
2023/03/12 06:46:58;;;;;;;8.90;5.53;;;;;;;;;;5052886;28;20391;-65
2023/03/12 06:49:23;;;;;;;9.25;5.82;;;;;;;;;;5050833;28;20118;-65
2023/03/12 06:51:49;;;;;;;13.05;5.90;;;;;;;;;;5050989;28;20029;-65
2023/03/12 06:54:14;;;;;;;16.40;6.85;;;;;;;;;;5050251;28;20053;-65
2023/03/12 06:56:39;;;;;;;11.45;6.55;;;;;;;;;;5051640;28;20032;-65
2023/03/12 06:59:04;;;;;;;12.40;6.45;;;;;;;;;;5052360;28;20032;-65
2023/03/12 07:01:30;;;;;;;11.90;6.28;;;;;;;;;;5051942;28;20032;-65
2023/03/12 07:03:55;;;;;;;10.27;7.00;;;;;;;;;;5051488;28;20029;-65
2023/03/12 07:06:21;;;;;;;16.40;7.35;;;;;;;;;;5048357;28;20044;-65
2023/03/12 07:08:47;;;;;;;16.10;8.32;;;;;;;;;;5051179;28;20047;-65
2023/03/12 07:11:12;;;;;;;10.90;6.78;;;;;;;;;;5048757;28;20479;-65
2023/03/12 07:13:38;;;;;;;11.88;7.72;;;;;;;;;;5046755;28;20618;-65
2023/03/12 07:16:03;;;;;;;9.52;7.55;;;;;;;;;;5041033;28;20025;-64
2023/03/12 07:18:29;;;;;;;16.10;9.20;;;;;;;;;;5046306;28;20100;-65
2023/03/12 07:20:54;;;;;;;9.65;7.85;;;;;;;;;;5041395;28;20033;-65
2023/03/12 07:23:20;;;;;;;14.95;9.48;;;;;;;;;;5053091;28;20471;-65
2023/03/12 07:25:46;;;;;;;14.55;9.90;;;;;;;;;;5040912;28;20037;-65
2023/03/12 07:28:12;;;;;;;13.43;10.18;;;;;;;;;;5046422;28;20078;-65
2023/03/12 07:30:38;;;;;;;19.63;10.77;;;;;;;;;;5041034;28;20029;-64
2023/03/12 07:33:04;;;;;;;19.83;10.68;;;;;;;;;;5045979;28;20082;-65
2023/03/12 07:35:30;;;;;;;21.17;10.15;;;;;;;;;;5047410;28;20024;-64
2023/03/12 07:37:55;;;;;;;13.38;10.45;;;;;;;;;;5046260;28;20025;-65
2023/03/12 07:40:20;;;;;;;15.10;10.43;;;;;;;;;;5041286;28;20025;-65
2023/03/12 07:42:45;;;;;;;16.52;11.77;;;;;;;;;;5046982;28;20032;-64
2023/03/12 07:45:11;;;;;;;16.67;10.90;;;;;;;;;;5045811;28;20510;-65
2023/03/12 07:47:36;;;;;;;18.23;12.65;;;;;;;;;;5053467;28;20096;-65
2023/03/12 07:50:01;;;;;;;14.57;11.48;;;;;;;;;;5040032;28;20032;-65
2023/03/12 07:52:27;;;;;;;18.55;11.98;;;;;;;;;;5044062;28;20028;-64
2023/03/12 07:54:55;;;;;;;16.75;11.35;;;;;;;;;;5049860;28;20025;-64
2023/03/12 07:57:20;;;;;;;16.90;12.77;;;;;;;;;;5053061;28;20105;-64
2023/03/12 07:59:46;;;;;;;18.67;13.30;;;;;;;;;;5052954;28;20040;-64
2023/03/12 08:02:11;;;;;;;20.02;13.07;;;;;;;;;;5050298;28;20021;-64
2023/03/12 08:04:37;;;;;;;16.17;12.13;;;;;;;;;;5050278;28;20021;-64
2023/03/12 08:07:02;;;;;;;22.20;16.77;;;;;;;;;;5047071;28;20079;-64
2023/03/12 08:09:28;;;;;;;20.25;12.93;;;;;;;;;;5041781;28;20017;-64
2023/03/12 08:11:53;;;;;;;24.23;16.00;;;;;;;;;;5036461;28;20454;-64
2023/03/12 08:14:18;;;;;;;16.75;13.35;;;;;;;;;;5048595;28;20107;-64
2023/03/12 08:16:44;;;;;;;19.23;13.70;;;;;;;;;;5046676;28;20133;-64
2023/03/12 08:19:09;;;;;;;21.95;14.00;;;;;;;;;;5039207;28;20044;-64
2023/03/12 08:21:34;;;;;;;21.80;15.57;;;;;;;;;;5039749;28;20033;-64
2023/03/12 08:23:59;;;;;;;21.50;17.08;;;;;;;;;;5045352;28;20032;-64
2023/03/12 08:26:25;;;;;;;32.58;18.10;;;;;;;;;;5048152;28;20032;-64
2023/03/12 08:28:50;;;;;;;22.35;17.42;;;;;;;;;;5046432;28;20028;-64
2023/03/12 08:31:15;;;;;;;25.40;18.85;;;;;;;;;;5040874;28;20313;-64
2023/03/12 08:33:42;;;;;;;28.23;18.75;;;;;;;;;;5046609;28;20100;-64
2023/03/12 08:36:07;;;;;;;21.60;18.40;;;;;;;;;;5047721;28;20021;-64
2023/03/12 08:38:33;;;;;;;26.85;17.80;;;;;;;;;;5043237;28;20037;-64
2023/03/12 08:40:59;;;;;;;23.50;18.80;;;;;;;;;;5047725;28;20467;-65
2023/03/12 08:43:24;;;;;;;30.42;19.00;;;;;;;;;;5044852;28;20017;-64
2023/03/12 08:45:56;;;;;;;28.35;18.42;;;;;;;;;;5047585;28;20037;-64
2023/03/12 08:48:22;;;;;;;22.60;19.13;;;;;;;;;;5040978;28;20033;-65
2023/03/12 08:50:47;;;;;;;30.15;18.05;;;;;;;;;;5045996;28;20021;-64
2023/03/12 08:53:12;;;;;;;22.17;18.63;;;;;;;;;;5043006;28;20029;-65
2023/03/12 08:55:38;;;;;;;24.65;20.08;;;;;;;;;;5041063;28;20025;-66
2023/03/12 08:58:03;;;;;;;26.27;21.30;;;;;;;;;;5042997;28;20378;-65
2023/03/12 09:00:28;;;;;;;27.83;21.80;;;;;;;;;;5026063;28;20013;-65
2023/03/12 09:02:56;;;;;;;26.48;20.27;;;;;;;;;;5024541;28;20028;-65
2023/03/12 09:05:22;;;;;;;23.85;20.30;;;;;;;;;;5003905;28;20033;-65
2023/03/12 09:07:48;;;;;;;22.80;18.83;;;;;;;;;;5008192;28;20080;-64
2023/03/12 09:10:14;;;;;;;30.00;20.90;;;;;;;;;;5014660;28;20132;-66
2023/03/12 09:12:39;;;;;;;35.10;21.42;;;;;;;;;;5008338;28;20021;-65
2023/03/12 09:15:05;;;;;;;31.80;20.83;;;;;;;;;;5008223;28;20029;-64
2023/03/12 09:17:30;;;;;;;33.80;20.42;;;;;;;;;;5005289;28;20988;-65
2023/03/12 09:19:56;;;;;;;31.23;21.17;;;;;;;;;;5004610;28;20033;-65
2023/03/12 09:22:21;;;;;;;32.08;21.10;;;;;;;;;;4999357;28;20025;-65
2023/03/12 09:24:46;;;;;;;33.47;21.65;;;;;;;;;;5003242;28;20080;-64
2023/03/12 09:27:12;;;;;;;51.10;20.77;;;;;;;;;;5007937;28;20024;-65
2023/03/12 09:29:37;;;;;;;29.38;19.38;;;;;;;;;;5008379;28;20914;-63
2023/03/12 09:32:02;;;;;;;38.53;22.25;;;;;;;;;;5035747;28;20028;-64
2023/03/12 09:34:27;;;;;;;41.45;21.15;;;;;;;;;;5034423;28;20032;-66
2023/03/12 09:36:53;;;;;;;42.83;24.17;;;;;;;;;;4996589;28;20877;-66
2023/03/12 09:39:19;;;;;;;36.70;21.58;;;;;;;;;;4999065;28;20030;-66
2023/03/12 09:41:46;;;;;;;51.13;23.85;;;;;;;;;;5032199;28;20036;-66
2023/03/12 09:44:17;;;;;;;41.78;24.25;;;;;;;;;;5045677;28;20113;-66
2023/03/12 09:46:42;;;;;;;45.83;25.40;;;;;;;;;;5052955;28;20171;-66
2023/03/12 09:49:17;;;;;;;47.10;22.85;;;;;;;;;;5052487;28;20499;-68
2023/03/12 09:51:44;;;;;;;37.38;22.50;;;;;;;;;;5054454;28;20033;-65
2023/03/12 09:54:22;;;;;;;50.25;24.83;;;;;;;;;;5054966;28;20089;-67
2023/03/12 09:56:48;;;;;;;48.67;25.75;;;;;;;;;;5049522;28;20500;-65
2023/03/12 09:59:13;;;;;;;56.25;23.27;;;;;;;;;;5045955;28;20577;-66
2023/03/12 10:01:47;;;;;;;50.53;23.10;;;;;;;;;;5054137;28;20021;-65
2023/03/12 10:04:22;;;;;;;49.38;22.92;;;;;;;;;;5054213;28;20044;-65
2023/03/12 10:07:08;;;;;;;54.78;22.42;;;;;;;;;;5054671;28;20040;-66
2023/03/12 10:09:49;;;;;;;55.58;23.83;;;;;;;;;;5053218;28;20463;-67
2023/03/12 10:12:37;;;;;;;48.88;20.75;;;;;;;;;;5049301;28;20360;-66
2023/03/12 10:15:08;;;;;;;63.97;23.98;;;;;;;;;;5046702;28;20379;-63
2023/03/12 10:17:53;;;;;;;60.40;22.30;;;;;;;;;;5043212;28;20045;-65
2023/03/12 10:20:24;;;;;;;55.55;21.50;;;;;;;;;;5048449;28;20025;-64
2023/03/12 10:22:52;;;;;;;54.88;21.45;;;;;;;;;;5051106;28;20110;-64
2023/03/12 10:25:36;;;;;;;51.08;19.75;;;;;;;;;;5050594;28;20033;-64
2023/03/12 10:28:13;;;;;;;43.08;21.08;;;;;;;;;;5042339;28;20056;-64
2023/03/12 10:30:40;;;;;;;56.95;19.52;;;;;;;;;;5049726;28;20036;-63
2023/03/12 10:33:09;;;;;;;44.05;18.70;;;;;;;;;;5051746;28;20036;-63
2023/03/12 10:35:35;;;;;;;44.50;20.13;;;;;;;;;;5045625;28;20136;-69
2023/03/12 10:38:02;;;;;;;48.10;17.88;;;;;;;;;;5052445;28;20424;-68
2023/03/12 10:40:28;;;;;;;46.75;19.38;;;;;;;;;;5052005;28;20017;-68
2023/03/12 10:42:54;;;;;;;43.20;18.50;;;;;;;;;;5053208;28;20021;-67
2023/03/12 10:45:24;;;;;;;52.58;18.73;;;;;;;;;;5050582;28;20114;-68
2023/03/12 10:47:52;;;;;;;43.78;18.10;;;;;;;;;;5052254;28;20025;-68
2023/03/12 10:50:22;;;;;;;37.25;16.77;;;;;;;;;;5052801;28;20029;-68
2023/03/12 10:52:49;;;;;;;41.50;16.88;;;;;;;;;;5052213;28;20021;-67
2023/03/12 10:55:20;;;;;;;38.58;16.05;;;;;;;;;;5050111;28;20035;-68
2023/03/12 10:57:46;;;;;;;42.65;16.63;;;;;;;;;;5051118;28;20033;-68
2023/03/12 11:00:22;;;;;;;44.55;16.38;;;;;;;;;;5053354;28;20029;-66
2023/03/12 11:02:55;;;;;;;35.28;14.73;;;;;;;;;;5053277;28;20124;-67
2023/03/12 11:05:25;;;;;;;42.80;15.82;;;;;;;;;;5045146;28;20025;-67
2023/03/12 11:07:51;;;;;;;25.77;14.63;;;;;;;;;;5042416;28;20068;-66
2023/03/12 11:10:20;;;;;;;33.30;12.45;;;;;;;;;;5046622;28;20463;-66
2023/03/12 11:12:54;;;;;;;39.58;13.40;;;;;;;;;;5036547;28;20467;-72
2023/03/12 11:15:22;;;;;;;31.83;12.10;;;;;;;;;;5034790;28;20029;-65
2023/03/12 11:17:47;;;;;;;21.63;10.20;;;;;;;;;;5038318;28;20016;-66
2023/03/12 11:20:27;;;;;;;29.85;11.18;;;;;;;;;;5052326;28;20531;-65
2023/03/12 11:22:52;;;;;;;28.75;10.65;;;;;;;;;;5045834;28;20041;-67
2023/03/12 11:25:24;;;;;;;35.72;11.38;;;;;;;;;;5044495;28;20037;-67
2023/03/12 11:27:52;;;;;;;29.42;10.75;;;;;;;;;;5039793;28;20025;-67
2023/03/12 11:30:22;;;;;;;27.80;10.27;;;;;;;;;;5043000;28;20111;-66
2023/03/12 11:32:48;;;;;;;36.15;11.35;;;;;;;;;;5039710;28;20113;-67
2023/03/12 11:35:14;;;;;;;24.38;9.25;;;;;;;;;;5041765;28;20440;-67
2023/03/12 11:37:40;;;;;;;24.65;9.70;;;;;;;;;;5048025;28;20063;-68
2023/03/12 11:40:24;;;;;;;25.00;9.67;;;;;;;;;;5041547;28;20049;-68
2023/03/12 11:42:55;;;;;;;20.77;9.20;;;;;;;;;;5042525;28;20321;-67
2023/03/12 11:45:33;;;;;;;23.25;9.48;;;;;;;;;;5041725;28;20737;-64
2023/03/12 11:48:08;;;;;;;19.63;9.50;;;;;;;;;;5045152;28;20043;-64
2023/03/12 11:50:43;;;;;;;37.83;10.93;;;;;;;;;;5043666;28;20122;-62
2023/03/12 11:53:27;;;;;;;24.23;9.93;;;;;;;;;;5048683;28;20053;-67
2023/03/12 11:55:55;;;;;;;29.77;9.65;;;;;;;;;;5040550;28;20028;-68
2023/03/12 11:58:36;;;;;;;29.25;10.27;;;;;;;;;;5041193;28;20026;-68
2023/03/12 12:01:04;;;;;;;24.77;8.93;;;;;;;;;;5044836;28;20021;-67
2023/03/12 12:03:30;;;;;;;24.65;9.65;;;;;;;;;;5048685;28;20385;-64
2023/03/12 12:06:01;;;;;;;26.80;9.27;;;;;;;;;;5039893;28;20036;-63
2023/03/12 12:08:45;;;;;;;28.48;10.85;;;;;;;;;;5048708;28;20362;-67
2023/03/12 12:11:17;;;;;;;30.85;10.30;;;;;;;;;;5052672;28;20033;-68
2023/03/12 12:13:42;;;;;;;24.88;9.65;;;;;;;;;;5038991;28;20070;-67
2023/03/12 12:16:19;;;;;;;30.17;11.00;;;;;;;;;;5046142;28;20032;-67
2023/03/12 12:18:44;;;;;;;23.60;10.38;;;;;;;;;;5033554;28;20276;-66
2023/03/12 12:21:23;;;;;;;32.13;11.03;;;;;;;;;;5031984;28;20032;-66
2023/03/12 12:23:58;;;;;;;35.33;11.10;;;;;;;;;;5033802;28;20418;-66
2023/03/12 12:26:29;;;;;;;26.77;9.05;;;;;;;;;;5033382;28;20384;-67
2023/03/12 12:28:57;;;;;;;32.20;10.48;;;;;;;;;;5033475;28;20022;-67
2023/03/12 12:31:37;;;;;;;30.77;10.70;;;;;;;;;;5032426;28;20124;-66
2023/03/12 12:34:02;;;;;;;30.15;10.05;;;;;;;;;;5039925;28;20052;-66
2023/03/12 12:36:30;;;;;;;24.48;9.07;;;;;;;;;;5038872;28;20022;-67
2023/03/12 12:39:04;;;;;;;23.00;9.80;;;;;;;;;;5033173;28;20079;-67
2023/03/12 12:41:30;;;;;;;;;;;;;;;;;;5033883;28;20029;-66
2023/03/12 12:43:58;;;;;;;27.60;9.45;;;;;;;;;;5033254;28;20352;-66
2023/03/12 12:46:26;;;;;;;33.03;10.07;;;;;;;;;;5046217;28;20057;-67
2023/03/12 12:48:58;;;;;;;31.98;9.57;;;;;;;;;;5051736;28;20081;-67
2023/03/12 12:51:25;;;;;;;36.30;9.80;;;;;;;;;;5050879;28;20021;-66
2023/03/12 12:53:50;;;;;;;28.23;8.65;;;;;;;;;;5052107;28;20174;-66
2023/03/12 12:56:16;;;;;;;21.23;9.10;;;;;;;;;;5050824;28;20103;-67
2023/03/12 12:58:47;;;;;;;18.47;8.13;;;;;;;;;;5051652;28;20373;-67
2023/03/12 13:01:13;;;;;;;27.27;8.93;;;;;;;;;;5048928;28;20379;-67
2023/03/12 13:03:39;;;;;;;23.63;8.30;;;;;;;;;;5050430;28;20024;-66
2023/03/12 13:06:05;;;;;;;39.33;7.50;;;;;;;;;;5049117;28;20434;-66
2023/03/12 13:08:50;;;;;;;24.67;8.80;;;;;;;;;;5050442;28;20443;-66
2023/03/12 13:11:16;;;;;;;20.42;7.53;;;;;;;;;;5047749;28;20037;-66
2023/03/12 13:13:47;;;;;;;24.38;8.20;;;;;;;;;;5051795;28;20539;-67
2023/03/12 13:16:27;;;;;;;25.63;8.93;;;;;;;;;;5035766;28;20526;-69
2023/03/12 13:18:57;;;;;;;22.02;8.23;;;;;;;;;;5016412;28;20881;-68
2023/03/12 13:21:29;;;;;;;31.83;9.30;;;;;;;;;;5012085;28;20020;-68
2023/03/12 13:24:06;;;;;;;21.13;8.70;;;;;;;;;;5038407;28;20029;-68
2023/03/12 13:26:57;;;;;;;33.25;9.75;;;;;;;;;;5032940;28;20033;-67
2023/03/12 13:29:30;;;;;;;35.13;9.73;;;;;;;;;;5037672;28;20087;-67
2023/03/12 13:31:55;;;;;;;26.60;8.63;;;;;;;;;;5038799;28;20041;-67
2023/03/12 13:34:21;;;;;;;34.85;10.00;;;;;;;;;;5054783;28;20471;-65
2023/03/12 13:36:50;;;;;;;23.45;7.63;;;;;;;;;;5045741;28;20040;-67
2023/03/12 13:39:15;;;;;;;20.50;8.90;;;;;;;;;;5038859;28;20032;-66
2023/03/12 13:41:40;;;;;;;25.60;8.77;;;;;;;;;;5039123;28;20029;-65
2023/03/12 13:44:24;;;;;;;29.27;9.10;;;;;;;;;;5042652;28;20276;-65
2023/03/12 13:47:02;;;;;;;29.98;9.95;;;;;;;;;;5051748;28;20788;-65
2023/03/12 13:49:34;;;;;;;23.52;9.82;;;;;;;;;;5046225;28;20481;-64
2023/03/12 13:51:59;;;;;;;23.40;9.07;;;;;;;;;;5052176;28;20021;-67
2023/03/12 13:54:27;;;;;;;27.30;11.13;;;;;;;;;;5053502;28;20071;-63
2023/03/12 13:56:55;;;;;;;23.30;8.45;;;;;;;;;;5053776;28;20025;-63
2023/03/12 13:59:22;;;;;;;27.95;10.60;;;;;;;;;;5054315;28;20025;-65
2023/03/12 14:01:49;;;;;;;22.65;8.50;;;;;;;;;;5054709;28;20029;-63
2023/03/12 14:04:19;;;;;;;31.45;9.45;;;;;;;;;;5053760;28;20075;-66
2023/03/12 14:06:57;;;;;;;21.40;9.35;;;;;;;;;;5053203;28;20529;-63
2023/03/12 14:09:28;;;;;;;30.90;9.23;;;;;;;;;;5054048;28;20158;-64
2023/03/12 14:11:59;;;;;;;22.67;9.15;;;;;;;;;;5044400;28;20025;-64
2023/03/12 14:14:42;;;;;;;24.92;9.57;;;;;;;;;;5049860;28;20022;-66
2023/03/12 14:17:18;;;;;;;26.95;9.73;;;;;;;;;;5053809;28;20047;-62
2023/03/12 14:19:45;;;;;;;21.00;8.65;;;;;;;;;;5035022;28;20034;-65
2023/03/12 14:22:12;;;;;;;25.23;10.70;;;;;;;;;;5046332;28;20029;-65
2023/03/12 14:24:39;;;;;;;23.35;9.10;;;;;;;;;;5052941;28;20025;-65
2023/03/12 14:27:10;;;;;;;32.78;11.07;;;;;;;;;;5049685;28;20048;-66
2023/03/12 14:29:37;;;;;;;21.30;8.70;;;;;;;;;;5054612;28;20029;-65